createdAt,value
2023-02-22T00:00:50.161Z,115.80
2023-02-22T00:01:50.061Z,113.30
2023-02-22T00:02:50.010Z,118.80
2023-02-22T00:03:50.029Z,113.20
2023-02-22T00:04:49.978Z,110.50
2023-02-22T00:05:49.962Z,117.30
2023-02-22T00:06:50.015Z,116.60
2023-02-22T00:07:49.952Z,116.70
2023-02-22T00:08:49.936Z,111.90
2023-02-22T00:09:49.926Z,116.50
2023-02-22T00:10:49.895Z,120.70
2023-02-22T00:11:49.904Z,118.50
2023-02-22T00:12:49.912Z,114.40
2023-02-22T00:13:49.894Z,114.10
2023-02-22T00:14:49.861Z,121.30
2023-02-22T00:15:49.889Z,125.10
2023-02-22T00:16:49.834Z,118.30
2023-02-22T00:17:49.865Z,111.30
2023-02-22T00:18:49.852Z,115.50
2023-02-22T00:19:49.818Z,117.50
2023-02-22T00:20:49.797Z,118.00
2023-02-22T00:21:49.809Z,113.70
2023-02-22T00:22:49.794Z,116.00
2023-02-22T00:23:49.782Z,121.00
2023-02-22T00:24:49.748Z,122.40
2023-02-22T00:25:49.771Z,119.90
2023-02-22T00:26:49.762Z,118.40
2023-02-22T00:27:49.749Z,121.00
2023-02-22T00:28:49.734Z,116.60
2023-02-22T00:29:49.689Z,126.10
2023-02-22T00:30:49.708Z,115.00
2023-02-22T00:31:49.791Z,120.50
2023-02-22T00:32:49.687Z,124.60
2023-02-22T00:33:49.672Z,122.00
2023-02-22T00:34:49.655Z,124.20
2023-02-22T00:35:49.657Z,120.30
2023-02-22T00:36:49.709Z,126.90
2023-02-22T00:37:49.638Z,129.90
2023-02-22T00:38:49.622Z,119.60
2023-02-22T00:39:49.613Z,127.60
2023-02-22T00:40:49.578Z,131.60
2023-02-22T00:41:49.621Z,130.10
2023-02-22T00:42:49.558Z,124.80
2023-02-22T00:43:49.598Z,130.00
2023-02-22T00:44:49.539Z,132.00
2023-02-22T00:45:49.574Z,126.10
2023-02-22T00:46:49.511Z,119.90
2023-02-22T00:47:49.576Z,131.80
2023-02-22T00:48:49.507Z,130.70
2023-02-22T00:49:49.513Z,122.20
2023-02-22T00:50:49.471Z,129.50
2023-02-22T00:51:49.539Z,132.60
2023-02-22T00:52:49.476Z,135.60
2023-02-22T00:53:49.483Z,129.60
2023-02-22T00:54:49.444Z,134.30
2023-02-22T00:55:49.440Z,133.40
2023-02-22T00:56:49.417Z,139.60
2023-02-22T00:57:49.421Z,134.00
2023-02-22T00:58:49.453Z,135.70
2023-02-22T00:59:49.432Z,122.80
2023-02-22T01:00:49.445Z,136.50
2023-02-22T01:01:49.387Z,130.40
2023-02-22T01:02:49.341Z,122.40
2023-02-22T01:03:49.365Z,116.80
2023-02-22T01:04:49.340Z,120.90
2023-02-22T01:05:49.329Z,120.20
2023-02-22T01:06:49.326Z,123.00
2023-02-22T01:07:49.328Z,121.20
2023-02-22T01:08:49.349Z,137.40
2023-02-22T01:09:49.289Z,148.20
2023-02-22T01:10:49.275Z,134.60
2023-02-22T01:11:49.264Z,137.40
2023-02-22T01:12:49.263Z,131.30
2023-02-22T01:13:49.277Z,113.10
2023-02-22T01:14:49.229Z,125.30
2023-02-22T01:15:49.246Z,149.00
2023-02-22T01:16:49.269Z,150.00
2023-02-22T01:17:49.210Z,146.50
2023-02-22T01:18:49.198Z,167.10
2023-02-22T01:19:49.179Z,139.70
2023-02-22T01:20:49.187Z,150.80
2023-02-22T01:21:49.186Z,154.30
2023-02-22T01:22:49.171Z,127.40
2023-02-22T01:23:49.143Z,135.40
2023-02-22T01:24:49.146Z,128.70
2023-02-22T01:25:49.117Z,154.70
2023-02-22T01:26:49.154Z,132.10
2023-02-22T01:27:49.083Z,117.80
2023-02-22T01:28:49.104Z,109.80
2023-02-22T01:29:49.105Z,115.10
2023-02-22T01:30:49.204Z,103.90
2023-02-22T01:31:49.068Z,105.60
2023-02-22T01:32:49.066Z,101.80
2023-02-22T01:33:49.103Z,116.10
2023-02-22T01:34:49.007Z,93.30
2023-02-22T01:35:49.061Z,92.20
2023-02-22T01:36:49.013Z,93.20
2023-02-22T01:37:48.990Z,93.70
2023-02-22T01:38:48.995Z,94.60
2023-02-22T01:39:49.031Z,115.30
2023-02-22T01:40:49.002Z,90.70
2023-02-22T01:41:48.994Z,93.50
2023-02-22T01:42:48.953Z,90.10
2023-02-22T01:43:48.937Z,93.00
2023-02-22T01:44:48.936Z,88.60
2023-02-22T01:45:49.032Z,85.00
2023-02-22T01:46:48.901Z,76.80
2023-02-22T01:47:48.880Z,95.90
2023-02-22T01:48:48.877Z,94.30
2023-02-22T01:49:48.931Z,81.50
2023-02-22T01:50:48.956Z,84.30
2023-02-22T01:51:48.850Z,73.60
2023-02-22T01:52:48.837Z,74.40
2023-02-22T01:53:48.820Z,78.70
2023-02-22T01:54:48.855Z,79.70
2023-02-22T01:55:48.827Z,76.80
2023-02-22T01:56:48.780Z,74.30
2023-02-22T01:57:48.799Z,78.90
2023-02-22T01:58:48.760Z,84.70
2023-02-22T01:59:48.784Z,78.90
2023-02-22T02:00:48.810Z,77.40
2023-02-22T02:02:07.455Z,70.60
2023-02-22T02:02:49.067Z,78.20
2023-02-22T02:03:49.096Z,82.20
2023-02-22T02:04:48.955Z,81.60
2023-02-22T02:05:48.834Z,90.30
2023-02-22T02:06:48.825Z,79.30
2023-02-22T02:07:48.712Z,80.90
2023-02-22T02:08:48.742Z,82.40
2023-02-22T02:09:48.699Z,78.30
2023-02-22T02:10:48.721Z,94.00
2023-02-22T02:11:48.687Z,82.80
2023-02-22T02:12:48.844Z,78.80
2023-02-22T02:13:48.655Z,86.70
2023-02-22T02:14:48.731Z,89.50
2023-02-22T02:15:48.680Z,86.50
2023-02-22T02:16:48.760Z,136.10
2023-02-22T02:17:48.633Z,113.00
2023-02-22T02:18:48.680Z,85.20
2023-02-22T02:19:48.665Z,99.70
2023-02-22T02:20:48.651Z,92.10
2023-02-22T02:21:48.634Z,100.30
2023-02-22T02:22:48.705Z,116.70
2023-02-22T02:23:48.558Z,101.70
2023-02-22T02:24:48.615Z,83.90
2023-02-22T02:25:48.602Z,141.00
2023-02-22T02:26:48.666Z,99.90
2023-02-22T02:27:48.548Z,132.40
2023-02-22T02:28:48.531Z,171.20
2023-02-22T02:29:48.522Z,115.20
2023-02-22T02:30:48.529Z,91.70
2023-02-22T02:31:48.683Z,110.00
2023-02-22T02:32:48.540Z,83.60
2023-02-22T02:33:48.532Z,131.30
2023-02-22T02:34:48.521Z,152.80
2023-02-22T02:35:48.548Z,103.70
2023-02-22T02:36:48.432Z,104.40
2023-02-22T02:37:48.461Z,142.60
2023-02-22T02:38:48.479Z,133.20
2023-02-22T02:39:48.453Z,101.20
2023-02-22T02:40:48.461Z,97.60
2023-02-22T02:41:48.459Z,88.60
2023-02-22T02:42:48.446Z,134.20
2023-02-22T02:43:48.394Z,139.60
2023-02-22T02:44:48.401Z,102.90
2023-02-22T02:45:48.426Z,194.60
2023-02-22T02:46:48.409Z,139.60
2023-02-22T02:47:48.372Z,118.40
2023-02-22T02:48:48.329Z,179.10
2023-02-22T02:49:48.408Z,120.80
2023-02-22T02:50:48.295Z,168.80
2023-02-22T02:51:48.294Z,159.30
2023-02-22T02:52:48.300Z,126.30
2023-02-22T02:53:48.302Z,177.40
2023-02-22T02:54:48.312Z,119.70
2023-02-22T02:55:48.308Z,133.70
2023-02-22T02:56:48.386Z,114.80
2023-02-22T02:57:48.214Z,132.80
2023-02-22T02:58:48.247Z,117.40
2023-02-22T02:59:48.231Z,114.80
2023-02-22T03:00:48.253Z,107.40
2023-02-22T03:01:48.206Z,109.60
2023-02-22T03:02:48.243Z,119.30
2023-02-22T03:03:48.202Z,167.80
2023-02-22T03:04:48.232Z,164.00
2023-02-22T03:05:48.267Z,178.60
2023-02-22T03:06:48.163Z,237.90
2023-02-22T03:07:48.202Z,279.60
2023-02-22T03:08:48.209Z,362.20
2023-02-22T03:09:48.226Z,496.10
2023-02-22T03:10:48.160Z,635.10
2023-02-22T03:11:48.149Z,701.60
2023-02-22T03:12:48.172Z,682.00
2023-02-22T03:13:48.091Z,588.60
2023-02-22T03:14:48.061Z,636.40
2023-02-22T03:15:48.043Z,735.00
2023-02-22T03:16:48.049Z,844.10
2023-02-22T03:17:47.994Z,738.30
2023-02-22T03:18:48.142Z,780.90
2023-02-22T03:19:48.029Z,922.60
2023-02-22T03:20:48.019Z,953.40
2023-02-22T03:21:48.047Z,1042.20
2023-02-22T03:22:48.063Z,1201.60
2023-02-22T03:23:48.042Z,866.20
2023-02-22T03:24:47.996Z,1105.20
2023-02-22T03:25:47.967Z,800.00
2023-02-22T03:26:47.930Z,907.30
2023-02-22T03:27:47.974Z,840.10
2023-02-22T03:28:48.086Z,911.20
2023-02-22T03:29:47.979Z,826.80
2023-02-22T03:30:47.993Z,856.50
2023-02-22T03:31:47.986Z,883.80
2023-02-22T03:32:48.038Z,1081.40
2023-02-22T03:33:47.848Z,672.60
2023-02-22T03:34:47.868Z,1047.20
2023-02-22T03:35:47.825Z,891.60
2023-02-22T03:36:47.785Z,857.30
2023-02-22T03:37:47.831Z,1016.00
2023-02-22T03:38:47.802Z,902.30
2023-02-22T03:39:47.764Z,1008.70
2023-02-22T03:40:47.785Z,957.00
2023-02-22T03:41:47.759Z,752.30
2023-02-22T03:42:47.740Z,975.70
2023-02-22T03:43:47.964Z,970.10
2023-02-22T03:44:47.752Z,1362.40
2023-02-22T03:45:47.835Z,909.70
2023-02-22T03:46:47.753Z,656.50
2023-02-22T03:47:47.780Z,781.30
2023-02-22T03:48:47.816Z,1123.00
2023-02-22T03:49:47.786Z,950.80
2023-02-22T03:50:47.775Z,943.80
2023-02-22T03:51:47.846Z,1073.80
2023-02-22T03:52:47.697Z,983.50
2023-02-22T03:53:47.738Z,1159.30
2023-02-22T03:54:47.745Z,1058.80
2023-02-22T03:55:47.786Z,1164.60
2023-02-22T03:56:47.688Z,1094.40
2023-02-22T03:57:47.612Z,1082.40
2023-02-22T03:58:47.703Z,1245.70
2023-02-22T03:59:47.629Z,1268.10
2023-02-22T04:00:47.618Z,1135.60
2023-02-22T04:01:47.668Z,1125.30
2023-02-22T04:02:47.569Z,882.20
2023-02-22T04:03:47.594Z,1118.40
2023-02-22T04:04:47.784Z,1065.20
2023-02-22T04:05:47.628Z,1162.70
2023-02-22T04:06:47.520Z,1244.80
2023-02-22T04:07:47.598Z,1233.00
2023-02-22T04:08:47.560Z,1322.90
2023-02-22T04:09:47.551Z,1145.80
2023-02-22T04:10:47.511Z,1275.30
2023-02-22T04:11:47.501Z,1068.00
2023-02-22T04:12:47.473Z,1278.00
2023-02-22T04:13:47.492Z,1326.70
2023-02-22T04:14:47.574Z,1526.30
2023-02-22T04:15:47.495Z,1184.80
2023-02-22T04:16:47.434Z,863.20
2023-02-22T04:17:47.425Z,1590.30
2023-02-22T04:18:47.440Z,1557.60
2023-02-22T04:19:47.406Z,1600.10
2023-02-22T04:20:47.414Z,1844.30
2023-02-22T04:21:47.373Z,911.00
2023-02-22T04:22:47.515Z,1151.60
2023-02-22T04:23:47.382Z,934.20
2023-02-22T04:24:47.382Z,1088.10
2023-02-22T04:25:47.328Z,1047.50
2023-02-22T04:26:47.385Z,986.00
2023-02-22T04:27:47.352Z,1062.70
2023-02-22T04:28:47.297Z,1024.10
2023-02-22T04:29:47.330Z,883.30
2023-02-22T04:30:47.355Z,1084.70
2023-02-22T04:31:47.379Z,1051.40
2023-02-22T04:32:47.309Z,805.20
2023-02-22T04:33:47.344Z,1021.90
2023-02-22T04:34:47.279Z,991.40
2023-02-22T04:35:47.291Z,1227.50
2023-02-22T04:36:47.197Z,1140.00
2023-02-22T04:37:47.278Z,1116.10
2023-02-22T04:38:47.232Z,1142.90
2023-02-22T04:39:47.780Z,1211.20
2023-02-22T04:40:47.177Z,1189.70
2023-02-22T04:41:47.286Z,1143.00
2023-02-22T04:42:47.179Z,1166.30
2023-02-22T04:43:47.202Z,1172.60
2023-02-22T04:44:47.204Z,1023.40
2023-02-22T04:45:47.224Z,1550.70
2023-02-22T04:46:47.162Z,1030.00
2023-02-22T04:47:47.102Z,1548.70
2023-02-22T04:48:47.130Z,1013.80
2023-02-22T04:49:47.123Z,1087.60
2023-02-22T04:50:47.155Z,999.30
2023-02-22T04:51:47.122Z,740.80
2023-02-22T04:52:47.150Z,657.60
2023-02-22T04:53:47.201Z,690.70
2023-02-22T04:54:47.069Z,704.20
2023-02-22T04:55:47.073Z,369.60
2023-02-22T04:56:47.022Z,513.40
2023-02-22T04:57:47.072Z,639.60
2023-02-22T04:58:47.047Z,656.80
2023-02-22T04:59:47.010Z,751.30
2023-02-22T05:00:46.998Z,671.50
2023-02-22T05:01:47.147Z,636.60
2023-02-22T05:02:47.099Z,679.30
2023-02-22T05:03:47.123Z,405.20
2023-02-22T05:04:47.050Z,481.80
2023-02-22T05:05:46.972Z,406.40
2023-02-22T05:06:46.997Z,440.70
2023-02-22T05:07:46.963Z,513.90
2023-02-22T05:08:46.941Z,479.40
2023-02-22T05:09:46.903Z,517.40
2023-02-22T05:10:46.950Z,460.00
2023-02-22T05:11:46.928Z,594.00
2023-02-22T05:12:46.947Z,554.00
2023-02-22T05:13:46.959Z,465.00
2023-02-22T05:14:46.999Z,450.10
2023-02-22T05:15:46.952Z,378.90
2023-02-22T05:16:46.852Z,342.40
2023-02-22T05:17:46.871Z,236.20
2023-02-22T05:18:46.828Z,387.30
2023-02-22T05:19:46.821Z,433.60
2023-02-22T05:20:46.793Z,462.80
2023-02-22T05:21:46.857Z,405.20
2023-02-22T05:22:46.819Z,383.90
2023-02-22T05:23:46.842Z,370.20
2023-02-22T05:24:46.760Z,371.40
2023-02-22T05:25:46.770Z,305.20
2023-02-22T05:26:46.842Z,323.50
2023-02-22T05:27:46.836Z,433.70
2023-02-22T05:28:46.873Z,372.20
2023-02-22T05:29:46.751Z,369.00
2023-02-22T05:30:46.965Z,356.40
2023-02-22T05:31:46.830Z,394.40
2023-02-22T05:32:47.165Z,199.90
2023-02-22T05:33:46.717Z,323.50
2023-02-22T05:34:46.882Z,315.40
2023-02-22T05:35:46.658Z,346.40
2023-02-22T05:36:46.665Z,306.10
2023-02-22T05:37:46.770Z,262.90
2023-02-22T05:38:46.637Z,256.40
2023-02-22T05:39:46.632Z,304.30
2023-02-22T05:40:46.692Z,376.40
2023-02-22T05:41:46.577Z,395.20
2023-02-22T05:42:48.890Z,419.70
2023-02-22T05:43:46.614Z,380.80
2023-02-22T05:44:46.661Z,428.10
2023-02-22T05:45:46.558Z,314.40
2023-02-22T05:46:46.612Z,333.40
2023-02-22T05:47:46.550Z,647.90
2023-02-22T05:48:46.514Z,350.60
2023-02-22T05:49:46.526Z,399.30
2023-02-22T05:50:46.544Z,367.70
2023-02-22T05:51:46.501Z,423.90
2023-02-22T05:52:46.496Z,347.70
2023-02-22T05:53:46.519Z,380.80
2023-02-22T05:54:46.508Z,376.60
2023-02-22T05:55:46.685Z,198.60
2023-02-22T05:56:46.492Z,261.80
2023-02-22T05:57:46.488Z,297.90
2023-02-22T05:58:46.416Z,262.00
2023-02-22T05:59:46.409Z,176.80
2023-02-22T06:00:46.505Z,243.20
2023-02-22T06:01:46.456Z,745.10
2023-02-22T06:02:46.406Z,458.40
2023-02-22T06:03:46.355Z,691.50
2023-02-22T06:04:46.404Z,291.50
2023-02-22T06:05:46.381Z,397.40
2023-02-22T06:06:46.274Z,312.20
2023-02-22T06:07:46.388Z,246.80
2023-02-22T06:08:46.365Z,380.80
2023-02-22T06:09:46.436Z,217.30
2023-02-22T06:10:46.284Z,296.10
2023-02-22T06:11:46.327Z,185.40
2023-02-22T06:12:46.340Z,200.60
2023-02-22T06:13:46.255Z,385.10
2023-02-22T06:14:46.233Z,424.20
2023-02-22T06:15:46.241Z,353.80
2023-02-22T06:16:46.241Z,390.60
2023-02-22T06:17:46.217Z,422.90
2023-02-22T06:18:46.159Z,418.50
2023-02-22T06:19:46.188Z,457.40
2023-02-22T06:20:46.281Z,526.90
2023-02-22T06:21:46.151Z,519.00
2023-02-22T06:22:46.147Z,480.60
2023-02-22T06:23:46.124Z,467.40
2023-02-22T06:24:46.129Z,465.70
2023-02-22T06:25:46.158Z,473.60
2023-02-22T06:26:46.125Z,526.90
2023-02-22T06:27:46.091Z,576.60
2023-02-22T06:28:46.080Z,495.90
2023-02-22T06:29:46.045Z,388.50
2023-02-22T06:30:46.083Z,463.10
2023-02-22T06:31:46.116Z,422.10
2023-02-22T06:32:46.005Z,460.20
2023-02-22T06:33:46.003Z,495.20
2023-02-22T06:34:45.998Z,284.80
2023-02-22T06:35:45.992Z,279.00
2023-02-22T06:36:46.061Z,394.40
2023-02-22T06:37:45.987Z,534.80
2023-02-22T06:38:46.005Z,513.90
2023-02-22T06:39:46.068Z,482.30
2023-02-22T06:40:46.055Z,484.50
2023-02-22T06:41:45.992Z,429.70
2023-02-22T06:42:45.981Z,490.30
2023-02-22T06:43:45.968Z,462.20
2023-02-22T06:44:45.964Z,431.60
2023-02-22T06:45:46.052Z,387.80
2023-02-22T06:46:45.893Z,348.80
2023-02-22T06:47:45.913Z,416.20
2023-02-22T06:48:45.924Z,344.40
2023-02-22T06:49:45.901Z,351.90
2023-02-22T06:50:45.829Z,349.80
2023-02-22T06:51:45.885Z,253.50
2023-02-22T06:52:45.888Z,393.70
2023-02-22T06:53:45.905Z,405.50
2023-02-22T06:54:45.844Z,424.60
2023-02-22T06:55:45.858Z,472.30
2023-02-22T06:56:45.831Z,359.80
2023-02-22T06:57:45.833Z,434.40
2023-02-22T06:58:45.796Z,490.10
2023-02-22T06:59:45.828Z,604.10
2023-02-22T07:00:45.816Z,595.10
2023-02-22T07:01:45.769Z,392.10
2023-02-22T07:02:45.803Z,379.00
2023-02-22T07:03:45.817Z,439.80
2023-02-22T07:04:45.841Z,510.00
2023-02-22T07:05:45.729Z,514.70
2023-02-22T07:06:45.750Z,269.00
2023-02-22T07:07:45.697Z,348.30
2023-02-22T07:08:45.774Z,441.70
2023-02-22T07:09:45.689Z,354.80
2023-02-22T07:10:45.632Z,369.70
2023-02-22T07:11:45.708Z,400.20
2023-02-22T07:12:52.623Z,404.90
2023-02-22T07:13:45.617Z,362.80
2023-02-22T07:14:45.604Z,413.40
2023-02-22T07:15:45.567Z,408.70
2023-02-22T07:16:45.684Z,406.40
2023-02-22T07:17:45.561Z,420.90
2023-02-22T07:18:45.552Z,400.40
2023-02-22T07:19:45.885Z,365.70
2023-02-22T07:20:45.507Z,384.10
2023-02-22T07:21:45.575Z,346.30
2023-02-22T07:22:45.553Z,405.70
2023-02-22T07:23:45.495Z,325.30
2023-02-22T07:24:45.479Z,310.80
2023-02-22T07:25:45.517Z,352.00
2023-02-22T07:26:45.636Z,379.90
2023-02-22T07:27:45.511Z,329.10
2023-02-22T07:28:45.509Z,304.60
2023-02-22T07:29:45.429Z,297.70
2023-02-22T07:30:45.598Z,249.60
2023-02-22T07:31:45.400Z,378.50
2023-02-22T07:32:45.488Z,273.50
2023-02-22T07:33:45.399Z,252.40
2023-02-22T07:34:45.407Z,220.30
2023-02-22T07:35:45.400Z,248.30
2023-02-22T07:36:45.388Z,232.30
2023-02-22T07:37:45.371Z,246.30
2023-02-22T07:38:45.368Z,242.00
2023-02-22T07:39:45.344Z,243.40
2023-02-22T07:40:45.367Z,224.20
2023-02-22T07:41:45.337Z,247.50
2023-02-22T07:42:45.316Z,259.50
2023-02-22T07:43:45.359Z,181.80
2023-02-22T07:44:45.550Z,162.00
2023-02-22T07:45:45.370Z,183.00
2023-02-22T07:46:45.279Z,176.80
2023-02-22T07:47:45.235Z,214.20
2023-02-22T07:48:45.254Z,277.10
2023-02-22T07:49:45.268Z,227.80
2023-02-22T07:50:45.248Z,273.20
2023-02-22T07:51:45.265Z,283.00
2023-02-22T07:52:45.230Z,259.80
2023-02-22T07:53:45.191Z,245.40
2023-02-22T07:54:45.204Z,322.50
2023-02-22T07:55:45.169Z,240.10
2023-02-22T07:56:45.158Z,243.00
2023-02-22T07:57:45.149Z,274.50
2023-02-22T07:58:45.136Z,240.30
2023-02-22T07:59:45.487Z,344.70
2023-02-22T08:00:45.298Z,242.60
2023-02-22T08:01:45.141Z,225.00
2023-02-22T08:02:45.163Z,191.10
2023-02-22T08:03:45.131Z,200.20
2023-02-22T08:04:45.116Z,280.70
2023-02-22T08:05:45.109Z,164.30
2023-02-22T08:06:45.113Z,165.00
2023-02-22T08:07:45.041Z,139.60
2023-02-22T08:08:45.033Z,131.70
2023-02-22T08:09:45.034Z,152.10
2023-02-22T08:10:45.212Z,112.50
2023-02-22T08:11:45.024Z,133.60
2023-02-22T08:12:45.035Z,113.90
2023-02-22T08:13:45.000Z,149.30
2023-02-22T08:14:44.974Z,132.30
2023-02-22T08:15:44.971Z,147.80
2023-02-22T08:16:45.058Z,130.80
2023-02-22T08:17:44.950Z,137.60
2023-02-22T08:18:45.097Z,159.70
2023-02-22T08:19:44.932Z,279.80
2023-02-22T08:20:44.933Z,223.30
2023-02-22T08:21:44.896Z,205.10
2023-02-22T08:22:44.914Z,155.70
2023-02-22T08:23:44.889Z,197.90
2023-02-22T08:24:44.886Z,117.10
2023-02-22T08:25:44.864Z,130.90
2023-02-22T08:26:44.877Z,145.70
2023-02-22T08:27:44.848Z,168.20
2023-02-22T08:28:44.849Z,114.50
2023-02-22T08:29:44.945Z,122.30
2023-02-22T08:30:45.017Z,104.90
2023-02-22T08:31:44.987Z,128.90
2023-02-22T08:32:44.981Z,134.10
2023-02-22T08:33:44.769Z,155.70
2023-02-22T08:34:44.801Z,124.70
2023-02-22T08:35:44.770Z,143.50
2023-02-22T08:36:44.769Z,144.20
2023-02-22T08:37:44.736Z,240.40
2023-02-22T08:38:44.712Z,221.50
2023-02-22T08:39:44.736Z,147.10
2023-02-22T08:40:44.770Z,157.60
2023-02-22T08:41:44.717Z,233.20
2023-02-22T08:42:44.692Z,298.50
2023-02-22T08:43:44.668Z,131.40
2023-02-22T08:44:44.680Z,279.30
2023-02-22T08:45:44.722Z,280.60
2023-02-22T08:46:44.660Z,204.10
2023-02-22T08:47:44.683Z,267.40
2023-02-22T08:48:44.624Z,170.60
2023-02-22T08:49:44.647Z,186.20
2023-02-22T08:50:44.658Z,106.80
2023-02-22T08:51:44.638Z,116.60
2023-02-22T08:52:44.589Z,272.00
2023-02-22T08:53:44.579Z,142.90
2023-02-22T08:54:44.550Z,176.00
2023-02-22T08:55:44.554Z,159.20
2023-02-22T08:56:44.533Z,280.10
2023-02-22T08:57:44.556Z,332.20
2023-02-22T08:58:44.526Z,174.50
2023-02-22T08:59:44.504Z,144.10
2023-02-22T09:00:44.496Z,177.20
2023-02-22T09:01:44.558Z,239.90
2023-02-22T09:02:44.538Z,255.50
2023-02-22T09:03:44.503Z,253.20
2023-02-22T09:04:44.486Z,291.50
2023-02-22T09:05:44.582Z,213.20
2023-02-22T09:06:44.457Z,232.90
2023-02-22T09:07:44.423Z,199.60
2023-02-22T09:08:44.420Z,215.40
2023-02-22T09:09:44.431Z,255.80
2023-02-22T09:10:44.424Z,121.60
2023-02-22T09:11:44.603Z,138.40
2023-02-22T09:12:44.423Z,85.90
2023-02-22T09:13:44.348Z,191.60
2023-02-22T09:14:44.377Z,82.10
2023-02-22T09:15:44.368Z,80.60
2023-02-22T09:16:44.391Z,86.00
2023-02-22T09:17:44.312Z,77.80
2023-02-22T09:18:44.732Z,87.90
2023-02-22T09:19:44.352Z,140.20
2023-02-22T09:20:44.279Z,60.40
2023-02-22T09:21:44.279Z,59.80
2023-02-22T09:22:44.251Z,56.70
2023-02-22T09:23:44.268Z,59.20
2023-02-22T09:24:44.248Z,63.80
2023-02-22T09:25:44.289Z,67.60
2023-02-22T09:26:44.263Z,49.00
2023-02-22T09:27:44.321Z,75.60
2023-02-22T09:28:44.210Z,62.20
2023-02-22T09:29:44.187Z,50.30
2023-02-22T09:30:44.211Z,52.80
2023-02-22T09:31:44.266Z,54.40
2023-02-22T09:32:44.437Z,57.50
2023-02-22T09:33:45.865Z,45.90
2023-02-22T09:34:44.132Z,43.60
2023-02-22T09:35:44.133Z,47.20
2023-02-22T09:36:44.205Z,53.80
2023-02-22T09:37:44.129Z,57.10
2023-02-22T09:38:44.136Z,54.10
2023-02-22T09:39:44.142Z,51.80
2023-02-22T09:40:44.109Z,56.90
2023-02-22T09:41:44.088Z,59.50
2023-02-22T09:42:44.103Z,50.40
2023-02-22T09:43:44.068Z,60.10
2023-02-22T09:44:44.053Z,63.50
2023-02-22T09:45:44.177Z,53.30
2023-02-22T09:46:44.044Z,62.30
2023-02-22T09:47:44.037Z,50.70
2023-02-22T09:48:44.014Z,52.80
2023-02-22T09:49:43.981Z,52.70
2023-02-22T09:50:43.996Z,49.20
2023-02-22T09:51:44.013Z,46.40
2023-02-22T09:52:44.014Z,47.20
2023-02-22T09:53:43.961Z,46.40
2023-02-22T09:54:43.973Z,45.60
2023-02-22T09:55:43.957Z,45.90
2023-02-22T09:56:43.975Z,41.70
2023-02-22T09:57:43.921Z,43.20
2023-02-22T09:58:43.943Z,48.50
2023-02-22T09:59:43.882Z,50.60
2023-02-22T10:00:43.944Z,52.90
2023-02-22T10:01:43.851Z,46.80
2023-02-22T10:02:43.915Z,44.30
2023-02-22T10:03:43.928Z,43.40
2023-02-22T10:04:43.853Z,42.20
2023-02-22T10:05:43.905Z,41.20
2023-02-22T10:06:43.859Z,41.20
2023-02-22T10:07:43.868Z,45.50
2023-02-22T10:08:43.826Z,43.90
2023-02-22T10:09:43.807Z,42.50
2023-02-22T10:10:43.764Z,42.20
2023-02-22T10:11:43.761Z,42.80
2023-02-22T10:12:43.756Z,42.20
2023-02-22T10:13:43.767Z,43.20
2023-02-22T10:14:44.156Z,42.50
2023-02-22T10:15:43.749Z,40.50
2023-02-22T10:16:43.734Z,43.20
2023-02-22T10:17:43.705Z,45.10
2023-02-22T10:18:43.695Z,46.40
2023-02-22T10:19:43.724Z,43.30
2023-02-22T10:20:43.676Z,47.80
2023-02-22T10:21:43.666Z,42.60
2023-02-22T10:22:43.678Z,42.00
2023-02-22T10:23:43.681Z,44.40
2023-02-22T10:24:43.675Z,43.50
2023-02-22T10:25:43.666Z,46.90
2023-02-22T10:26:43.659Z,43.00
2023-02-22T10:27:43.612Z,42.40
2023-02-22T10:28:43.608Z,40.20
2023-02-22T10:29:43.585Z,42.80
2023-02-22T10:30:43.643Z,41.80
2023-02-22T10:31:43.595Z,45.30
2023-02-22T10:32:44.187Z,42.90
2023-02-22T10:33:43.540Z,45.20
2023-02-22T10:34:43.612Z,44.00
2023-02-22T10:35:45.945Z,40.10
2023-02-22T10:36:43.550Z,42.20
2023-02-22T10:37:43.558Z,41.50
2023-02-22T10:38:43.515Z,43.70
2023-02-22T10:39:43.522Z,38.80
2023-02-22T10:40:43.499Z,42.00
2023-02-22T10:41:43.465Z,39.50
2023-02-22T10:42:43.493Z,40.30
2023-02-22T10:43:43.441Z,38.50
2023-02-22T10:44:43.433Z,39.90
2023-02-22T10:45:43.440Z,42.00
2023-02-22T10:46:43.436Z,38.20
2023-02-22T10:47:43.377Z,37.50
2023-02-22T10:48:43.446Z,38.60
2023-02-22T10:49:43.368Z,36.80
2023-02-22T10:50:43.358Z,38.80
2023-02-22T10:51:43.369Z,37.20
2023-02-22T10:52:43.349Z,40.80
2023-02-22T10:53:43.316Z,35.80
2023-02-22T10:54:43.324Z,37.00
2023-02-22T10:55:43.323Z,38.80
2023-02-22T10:56:43.319Z,40.30
2023-02-22T10:57:43.277Z,37.80
2023-02-22T10:58:43.273Z,38.90
2023-02-22T10:59:43.254Z,35.70
2023-02-22T11:00:44.232Z,37.80
2023-02-22T11:01:43.347Z,42.10
2023-02-22T11:02:43.231Z,39.90
2023-02-22T11:03:43.234Z,39.70
2023-02-22T11:04:43.253Z,39.70
2023-02-22T11:05:43.204Z,39.60
2023-02-22T11:06:43.228Z,39.60
2023-02-22T11:07:43.221Z,41.90
2023-02-22T11:08:43.173Z,37.80
2023-02-22T11:09:43.140Z,39.00
2023-02-22T11:10:43.216Z,40.00
2023-02-22T11:11:43.196Z,40.60
2023-02-22T11:12:43.174Z,42.20
2023-02-22T11:13:43.129Z,40.20
2023-02-22T11:14:43.142Z,40.10
2023-02-22T11:15:43.156Z,41.90
2023-02-22T11:16:43.185Z,39.80
2023-02-22T11:17:43.100Z,40.50
2023-02-22T11:18:43.098Z,40.30
2023-02-22T11:19:43.069Z,39.90
2023-02-22T11:20:43.049Z,38.20
2023-02-22T11:21:43.038Z,37.90
2023-02-22T11:22:43.067Z,37.40
2023-02-22T11:23:44.801Z,40.50
2023-02-22T11:24:49.090Z,40.50
2023-02-22T11:25:42.999Z,40.80
2023-02-22T11:26:43.007Z,41.70
2023-02-22T11:27:42.979Z,42.80
2023-02-22T11:28:43.006Z,41.40
2023-02-22T11:29:43.002Z,41.60
2023-02-22T11:30:43.061Z,43.30
2023-02-22T11:31:43.010Z,41.90
2023-02-22T11:32:42.928Z,42.60
2023-02-22T11:33:42.941Z,43.70
2023-02-22T11:34:42.920Z,39.10
2023-02-22T11:35:42.912Z,42.70
2023-02-22T11:36:42.881Z,44.90
2023-02-22T11:37:42.880Z,45.30
2023-02-22T11:38:42.889Z,41.00
2023-02-22T11:39:42.908Z,46.30
2023-02-22T11:40:42.860Z,40.10
2023-02-22T11:41:42.847Z,43.40
2023-02-22T11:42:42.822Z,40.10
2023-02-22T11:43:42.804Z,42.10
2023-02-22T11:44:42.856Z,40.30
2023-02-22T11:45:52.842Z,42.00
2023-02-22T11:46:42.867Z,43.10
2023-02-22T11:47:42.811Z,41.40
2023-02-22T11:48:42.785Z,45.10
2023-02-22T11:49:42.766Z,44.80
2023-02-22T11:50:42.744Z,47.50
2023-02-22T11:51:42.727Z,47.10
2023-02-22T11:52:42.740Z,44.20
2023-02-22T11:53:42.700Z,49.70
2023-02-22T11:54:42.722Z,52.60
2023-02-22T11:55:43.623Z,122.20
2023-02-22T11:56:43.044Z,49.70
2023-02-22T11:57:42.673Z,49.90
2023-02-22T11:58:42.715Z,47.60
2023-02-22T11:59:42.646Z,48.60
2023-02-22T12:00:42.624Z,50.70
2023-02-22T12:01:42.621Z,50.30
2023-02-22T12:02:51.819Z,51.20
2023-02-22T12:03:42.727Z,50.00
2023-02-22T12:04:42.718Z,46.20
2023-02-22T12:05:42.668Z,51.60
2023-02-22T12:06:42.567Z,46.20
2023-02-22T12:07:42.547Z,45.80
2023-02-22T12:08:42.560Z,48.60
2023-02-22T12:09:42.579Z,44.80
2023-02-22T12:10:42.561Z,49.50
2023-02-22T12:11:42.540Z,44.20
2023-02-22T12:12:42.525Z,44.30
2023-02-22T12:13:42.528Z,44.20
2023-02-22T12:14:42.539Z,43.70
2023-02-22T12:15:42.511Z,42.90
2023-02-22T12:16:42.468Z,44.50
2023-02-22T12:17:48.162Z,49.20
2023-02-22T12:18:42.475Z,46.70
2023-02-22T12:19:42.459Z,41.90
2023-02-22T12:20:42.474Z,43.70
2023-02-22T12:21:42.413Z,45.80
2023-02-22T12:22:42.478Z,41.10
2023-02-22T12:23:42.410Z,43.40
2023-02-22T12:24:42.395Z,42.90
2023-02-22T12:25:42.388Z,44.10
2023-02-22T12:26:42.385Z,42.60
2023-02-22T12:27:42.393Z,41.80
2023-02-22T12:28:42.387Z,42.90
2023-02-22T12:29:42.367Z,43.80
2023-02-22T12:30:42.527Z,42.40
2023-02-22T12:31:42.400Z,42.10
2023-02-22T12:32:42.397Z,42.50
2023-02-22T12:33:42.326Z,41.40
2023-02-22T12:34:42.310Z,43.80